Time;durP1;ratioP1;P1;durP2;ratioP2;P2;SDS_P1;SDS_P2;PMS_P1;PMS_P2;Temp;Humidity;BMP_temperature;BMP_pressure;BME280_temperature;BME280_humidity;BME280_pressure;Samples;Min_cycle;Max_cycle;Signal;HPM_P1;HPM_P2
2023/08/22 00:01:43;;;;;;;889.95;628.58;;;;;;;;;;5080778;28;20730;-60
2023/08/22 00:04:09;;;;;;;887.20;617.40;;;;;;;;;;5086942;28;20019;-60
2023/08/22 00:06:34;;;;;;;893.30;629.25;;;;;;;;;;5086604;28;20028;-59
2023/08/22 00:08:59;;;;;;;886.55;631.15;;;;;;;;;;5087013;28;20389;-59
2023/08/22 00:11:24;;;;;;;887.83;626.40;;;;;;;;;;5083457;28;20016;-60
2023/08/22 00:13:50;;;;;;;888.90;633.85;;;;;;;;;;5086633;28;20016;-56
2023/08/22 00:16:15;;;;;;;887.83;631.15;;;;;;;;;;5084910;28;20036;-59
2023/08/22 00:18:40;;;;;;;890.70;621.67;;;;;;;;;;5086063;28;20012;-60
2023/08/22 00:21:06;;;;;;;890.40;632.28;;;;;;;;;;5082411;28;20794;-60
2023/08/22 00:23:31;;;;;;;886.17;622.80;;;;;;;;;;5085786;28;20528;-55
2023/08/22 00:25:56;;;;;;;885.88;619.78;;;;;;;;;;5085853;28;20027;-57
2023/08/22 00:28:21;;;;;;;889.30;622.90;;;;;;;;;;5083865;28;20420;-59
2023/08/22 00:30:47;;;;;;;886.15;615.50;;;;;;;;;;5086362;28;20024;-60
2023/08/22 00:33:12;;;;;;;888.03;609.90;;;;;;;;;;5083907;28;20554;-60
2023/08/22 00:35:37;;;;;;;888.63;628.90;;;;;;;;;;5085238;28;20023;-61
2023/08/22 00:38:03;;;;;;;884.85;621.80;;;;;;;;;;5085246;28;20527;-61
2023/08/22 00:40:28;;;;;;;887.33;620.85;;;;;;;;;;5085396;28;20570;-59
2023/08/22 00:42:53;;;;;;;888.00;614.67;;;;;;;;;;5083267;28;20024;-58
2023/08/22 00:45:18;;;;;;;889.53;622.78;;;;;;;;;;5087202;28;20046;-61
2023/08/22 00:47:44;;;;;;;890.40;615.35;;;;;;;;;;5085606;28;20595;-60
2023/08/22 00:50:10;;;;;;;891.05;616.03;;;;;;;;;;5087960;28;20020;-60
2023/08/22 00:52:35;;;;;;;888.88;611.00;;;;;;;;;;5085780;28;20051;-59
2023/08/22 00:55:00;;;;;;;883.15;609.78;;;;;;;;;;5086886;28;20024;-58
2023/08/22 00:57:26;;;;;;;886.17;595.15;;;;;;;;;;5085137;28;20070;-57
2023/08/22 00:59:52;;;;;;;887.72;589.05;;;;;;;;;;5086379;28;20016;-60
2023/08/22 01:02:17;;;;;;;883.40;618.22;;;;;;;;;;5084258;28;20043;-60
2023/08/22 01:04:42;;;;;;;884.00;624.15;;;;;;;;;;5085336;28;20028;-57
2023/08/22 01:07:25;;;;;;;882.38;616.03;;;;;;;;;;5083354;28;20419;-60
2023/08/22 01:10:02;;;;;;;883.95;618.72;;;;;;;;;;5098883;28;20031;-60
2023/08/22 01:12:39;;;;;;;882.30;599.55;;;;;;;;;;5082228;28;20538;-57
2023/08/22 01:15:05;;;;;;;878.45;613.55;;;;;;;;;;5084326;28;20028;-59
2023/08/22 01:17:31;;;;;;;880.45;622.38;;;;;;;;;;5082051;28;20039;-60
2023/08/22 01:19:56;;;;;;;881.45;621.38;;;;;;;;;;5082514;28;20032;-57
2023/08/22 01:22:25;;;;;;;886.08;621.83;;;;;;;;;;5081839;28;20480;-57
2023/08/22 01:24:50;;;;;;;882.20;614.10;;;;;;;;;;5082289;28;20028;-60
2023/08/22 01:27:17;;;;;;;882.28;614.00;;;;;;;;;;5082629;28;20038;-60
2023/08/22 01:29:47;;;;;;;880.90;616.85;;;;;;;;;;5082495;28;20031;-60
2023/08/22 01:32:30;;;;;;;881.10;613.42;;;;;;;;;;5083418;28;20031;-59
2023/08/22 01:34:57;;;;;;;879.70;594.55;;;;;;;;;;5083183;28;20016;-60
2023/08/22 01:37:23;;;;;;;881.47;608.90;;;;;;;;;;5083236;28;20062;-60
2023/08/22 01:39:49;;;;;;;881.75;614.10;;;;;;;;;;5084748;28;20051;-60
2023/08/22 01:42:15;;;;;;;881.50;617.50;;;;;;;;;;5083132;28;20024;-59
2023/08/22 01:44:40;;;;;;;882.65;614.40;;;;;;;;;;5083994;28;20062;-60
2023/08/22 01:47:05;;;;;;;880.55;603.05;;;;;;;;;;5084098;28;20024;-60
2023/08/22 01:49:35;;;;;;;877.28;606.33;;;;;;;;;;5084972;28;20485;-59
2023/08/22 01:52:01;;;;;;;879.53;610.30;;;;;;;;;;5082507;28;20051;-60
2023/08/22 01:54:26;;;;;;;878.97;612.70;;;;;;;;;;5083425;28;20405;-58
2023/08/22 01:56:51;;;;;;;881.67;604.50;;;;;;;;;;5080501;28;20039;-59
2023/08/22 01:59:16;;;;;;;880.00;608.40;;;;;;;;;;5084882;28;20020;-59
2023/08/22 02:01:42;;;;;;;881.67;611.17;;;;;;;;;;5082962;28;20455;-61
2023/08/22 02:04:07;;;;;;;880.58;609.28;;;;;;;;;;5080257;28;20216;-60
2023/08/22 02:06:33;;;;;;;884.25;606.05;;;;;;;;;;5067274;28;20448;-58
2023/08/22 02:08:58;;;;;;;874.15;604.13;;;;;;;;;;5083362;28;20051;-55
2023/08/22 02:11:23;;;;;;;880.97;609.63;;;;;;;;;;5083567;28;20016;-60
2023/08/22 02:13:49;;;;;;;879.10;611.42;;;;;;;;;;5066823;28;20451;-57
2023/08/22 02:16:14;;;;;;;885.42;608.20;;;;;;;;;;5079734;28;20444;-58
2023/08/22 02:18:40;;;;;;;877.88;607.10;;;;;;;;;;5084464;28;20054;-58
2023/08/22 02:21:05;;;;;;;876.85;603.97;;;;;;;;;;5082785;28;20028;-56
2023/08/22 02:23:32;;;;;;;878.42;593.03;;;;;;;;;;5084239;28;20362;-60
2023/08/22 02:25:57;;;;;;;892.25;590.45;;;;;;;;;;5080932;28;20051;-58
2023/08/22 02:28:22;;;;;;;889.28;595.42;;;;;;;;;;5081259;28;20024;-59
2023/08/22 02:30:47;;;;;;;878.57;609.70;;;;;;;;;;5083404;28;20466;-60
2023/08/22 02:33:13;;;;;;;884.55;599.53;;;;;;;;;;5082492;28;20386;-58
2023/08/22 02:35:39;;;;;;;881.95;579.58;;;;;;;;;;5083252;28;20428;-58
2023/08/22 02:38:04;;;;;;;878.03;573.60;;;;;;;;;;5082532;28;20020;-61
2023/08/22 02:40:30;;;;;;;884.03;591.88;;;;;;;;;;5084489;28;20055;-59
2023/08/22 02:42:55;;;;;;;879.63;593.47;;;;;;;;;;5068824;28;20445;-57
2023/08/22 02:45:20;;;;;;;881.47;602.17;;;;;;;;;;5074589;28;20020;-59
2023/08/22 02:47:45;;;;;;;876.30;589.72;;;;;;;;;;5087349;28;20385;-60
2023/08/22 02:50:11;;;;;;;879.80;603.08;;;;;;;;;;5087194;28;20051;-60
2023/08/22 02:52:36;;;;;;;874.03;590.22;;;;;;;;;;5086207;28;20048;-56
2023/08/22 02:55:01;;;;;;;876.70;594.10;;;;;;;;;;5087647;28;20023;-60
2023/08/22 02:57:26;;;;;;;871.75;589.22;;;;;;;;;;5087021;28;20088;-59
2023/08/22 02:59:52;;;;;;;870.85;589.38;;;;;;;;;;5086846;28;20039;-61
2023/08/22 03:02:17;;;;;;;874.00;588.65;;;;;;;;;;5085406;28;20101;-59
2023/08/22 03:04:43;;;;;;;873.05;598.67;;;;;;;;;;5087625;28;20049;-60
2023/08/22 03:07:09;;;;;;;879.45;583.30;;;;;;;;;;5075430;28;20165;-60
2023/08/22 03:09:34;;;;;;;880.75;591.15;;;;;;;;;;5065791;28;20021;-60
2023/08/22 03:12:00;;;;;;;880.13;587.70;;;;;;;;;;5078946;28;20469;-60
2023/08/22 03:14:25;;;;;;;873.03;590.95;;;;;;;;;;5087838;28;20028;-58
2023/08/22 03:16:50;;;;;;;876.58;598.50;;;;;;;;;;5066943;28;20047;-59
2023/08/22 03:19:16;;;;;;;882.88;592.30;;;;;;;;;;5087382;28;20074;-60
2023/08/22 03:21:41;;;;;;;878.83;584.15;;;;;;;;;;5086118;28;20051;-55
2023/08/22 03:24:06;;;;;;;877.85;585.38;;;;;;;;;;5087362;28;20028;-58
2023/08/22 03:26:32;;;;;;;877.05;592.58;;;;;;;;;;5084599;28;20036;-60
2023/08/22 03:28:57;;;;;;;873.42;595.55;;;;;;;;;;5085825;28;20069;-55
2023/08/22 03:31:25;;;;;;;884.67;593.05;;;;;;;;;;5083161;28;20100;-59
2023/08/22 03:33:50;;;;;;;890.53;579.33;;;;;;;;;;5084395;28;20508;-61
2023/08/22 03:36:16;;;;;;;881.65;590.13;;;;;;;;;;5084034;28;20036;-56
2023/08/22 03:38:41;;;;;;;871.88;594.42;;;;;;;;;;5086368;28;20031;-59
2023/08/22 03:41:06;;;;;;;879.05;592.75;;;;;;;;;;5086589;28;20024;-57
2023/08/22 03:43:32;;;;;;;881.08;593.38;;;;;;;;;;5085902;28;20027;-57
2023/08/22 03:45:57;;;;;;;872.92;578.15;;;;;;;;;;5084312;28;20034;-60
2023/08/22 03:48:22;;;;;;;880.47;590.90;;;;;;;;;;5065078;28;20040;-59
2023/08/22 03:50:48;;;;;;;877.70;596.05;;;;;;;;;;5083446;28;20265;-61
2023/08/22 03:53:13;;;;;;;868.65;591.58;;;;;;;;;;5083029;28;20059;-60
2023/08/22 03:55:39;;;;;;;867.88;585.25;;;;;;;;;;5084494;28;20020;-60
2023/08/22 03:58:04;;;;;;;873.50;588.90;;;;;;;;;;5084280;28;20673;-60
2023/08/22 04:00:30;;;;;;;875.40;585.42;;;;;;;;;;5086427;28;20027;-59
2023/08/22 04:02:56;;;;;;;872.95;587.33;;;;;;;;;;5084874;28;20051;-60
2023/08/22 04:05:22;;;;;;;875.25;581.35;;;;;;;;;;5086419;28;20020;-59
2023/08/22 04:07:47;;;;;;;882.97;585.88;;;;;;;;;;5083881;28;20042;-58
2023/08/22 04:10:12;;;;;;;875.35;585.58;;;;;;;;;;5086185;28;20031;-57
2023/08/22 04:12:38;;;;;;;876.60;585.45;;;;;;;;;;5085183;28;20059;-61
2023/08/22 04:15:03;;;;;;;871.13;590.53;;;;;;;;;;5085064;28;20024;-58
2023/08/22 04:17:28;;;;;;;877.03;595.33;;;;;;;;;;5083357;28;20078;-59
2023/08/22 04:19:54;;;;;;;879.25;590.08;;;;;;;;;;5084029;28;20016;-60
2023/08/22 04:22:19;;;;;;;881.08;590.15;;;;;;;;;;5082989;28;20089;-57
2023/08/22 04:24:44;;;;;;;873.55;588.45;;;;;;;;;;5084842;28;20030;-60
2023/08/22 04:27:09;;;;;;;877.50;590.50;;;;;;;;;;5085298;28;20465;-59
2023/08/22 04:29:35;;;;;;;876.23;588.80;;;;;;;;;;5085867;28;20042;-61
2023/08/22 04:32:03;;;;;;;874.33;589.83;;;;;;;;;;5084968;28;20275;-60
2023/08/22 04:34:28;;;;;;;877.22;593.03;;;;;;;;;;5085918;28;20058;-60
2023/08/22 04:36:53;;;;;;;874.75;593.75;;;;;;;;;;5084944;28;20452;-61
2023/08/22 04:39:19;;;;;;;876.92;600.63;;;;;;;;;;5083528;28;20031;-61
2023/08/22 04:41:44;;;;;;;877.97;599.50;;;;;;;;;;5083216;28;20369;-58
2023/08/22 04:44:09;;;;;;;883.08;598.58;;;;;;;;;;5079330;28;20028;-57
2023/08/22 04:46:35;;;;;;;879.25;601.70;;;;;;;;;;5081048;28;20051;-59
2023/08/22 04:49:00;;;;;;;876.58;585.22;;;;;;;;;;5085761;28;20028;-55
2023/08/22 04:51:25;;;;;;;879.25;595.47;;;;;;;;;;5084604;28;20147;-59
2023/08/22 04:53:52;;;;;;;886.03;605.25;;;;;;;;;;5100029;28;20077;-60
2023/08/22 04:56:17;;;;;;;883.67;581.95;;;;;;;;;;5081745;28;20469;-60
2023/08/22 04:58:43;;;;;;;881.90;589.80;;;;;;;;;;5084888;28;20044;-60
2023/08/22 05:01:08;;;;;;;882.28;585.03;;;;;;;;;;5083819;28;20035;-60
2023/08/22 05:03:33;;;;;;;896.25;619.78;;;;;;;;;;5084380;28;20491;-59
2023/08/22 05:05:59;;;;;;;892.25;626.45;;;;;;;;;;5085653;28;20024;-59
2023/08/22 05:08:24;;;;;;;897.88;637.00;;;;;;;;;;5083403;28;20031;-55
2023/08/22 05:10:49;;;;;;;900.70;656.78;;;;;;;;;;5084481;28;20028;-59
2023/08/22 05:13:14;;;;;;;907.50;668.78;;;;;;;;;;5082119;28;20024;-59
2023/08/22 05:15:41;;;;;;;911.30;680.50;;;;;;;;;;5085367;28;20032;-60
2023/08/22 05:18:07;;;;;;;917.33;682.13;;;;;;;;;;5084602;28;20119;-60
2023/08/22 05:20:32;;;;;;;922.67;702.42;;;;;;;;;;5085470;28;20099;-58
2023/08/22 05:22:57;;;;;;;932.90;720.20;;;;;;;;;;5082861;28;20031;-60
2023/08/22 05:25:23;;;;;;;935.93;719.10;;;;;;;;;;5083886;28;20465;-58
2023/08/22 05:27:48;;;;;;;939.03;715.60;;;;;;;;;;5082701;28;20308;-57
2023/08/22 05:30:13;;;;;;;945.25;738.00;;;;;;;;;;5085006;28;20462;-57
2023/08/22 05:32:39;;;;;;;951.80;758.90;;;;;;;;;;5083184;28;20039;-60
2023/08/22 05:35:05;;;;;;;949.33;749.47;;;;;;;;;;5084737;28;20062;-60
2023/08/22 05:37:30;;;;;;;954.05;767.13;;;;;;;;;;5047335;28;20032;-60
2023/08/22 05:39:56;;;;;;;960.88;780.25;;;;;;;;;;5084835;28;20531;-60
2023/08/22 05:42:23;;;;;;;961.67;776.08;;;;;;;;;;5084718;28;20027;-59
2023/08/22 05:44:48;;;;;;;963.55;798.35;;;;;;;;;;5083955;28;20024;-60
2023/08/22 05:47:13;;;;;;;962.83;800.80;;;;;;;;;;5082471;28;20023;-58
2023/08/22 05:49:39;;;;;;;973.23;807.23;;;;;;;;;;5080270;28;20882;-57
2023/08/22 05:52:04;;;;;;;975.28;818.92;;;;;;;;;;5071057;28;20292;-60
2023/08/22 05:54:30;;;;;;;980.53;819.08;;;;;;;;;;5080123;28;20272;-54
2023/08/22 05:56:55;;;;;;;978.35;830.30;;;;;;;;;;5074147;28;20035;-60
2023/08/22 05:59:22;;;;;;;982.40;821.90;;;;;;;;;;5073065;28;20135;-57
2023/08/22 06:01:47;;;;;;;982.42;843.95;;;;;;;;;;5080845;28;20265;-55
2023/08/22 06:04:12;;;;;;;984.87;842.63;;;;;;;;;;5080618;28;20028;-59
2023/08/22 06:06:37;;;;;;;986.77;839.90;;;;;;;;;;5070258;28;21008;-59
2023/08/22 06:09:03;;;;;;;984.67;843.53;;;;;;;;;;5083204;28;20493;-57
2023/08/22 06:11:28;;;;;;;987.70;855.15;;;;;;;;;;5082494;28;20262;-57
2023/08/22 06:13:55;;;;;;;990.83;859.13;;;;;;;;;;5080515;28;20476;-59
2023/08/22 06:16:21;;;;;;;998.83;863.45;;;;;;;;;;5077817;28;20334;-61
2023/08/22 06:18:46;;;;;;;994.73;861.53;;;;;;;;;;5073630;28;20556;-58
2023/08/22 06:21:11;;;;;;;1003.13;885.88;;;;;;;;;;5085018;28;20272;-59
2023/08/22 06:23:37;;;;;;;1028.05;896.20;;;;;;;;;;5081829;28;20031;-58
2023/08/22 06:26:02;;;;;;;1032.20;912.40;;;;;;;;;;5082590;28;20028;-61
2023/08/22 06:28:27;;;;;;;1056.30;941.35;;;;;;;;;;5077057;28;20348;-60
2023/08/22 06:30:52;;;;;;;1052.50;937.70;;;;;;;;;;5080654;28;20034;-58
2023/08/22 06:33:18;;;;;;;1037.40;915.33;;;;;;;;;;5080551;28;20166;-61
2023/08/22 06:35:47;;;;;;;1060.27;944.30;;;;;;;;;;5074065;28;20054;-57
2023/08/22 06:38:12;;;;;;;1085.25;968.10;;;;;;;;;;5075943;28;20183;-58
2023/08/22 06:40:37;;;;;;;1074.30;956.75;;;;;;;;;;5081373;28;20732;-59
2023/08/22 06:43:03;;;;;;;1063.50;946.43;;;;;;;;;;5083868;28;20592;-58
2023/08/22 06:45:28;;;;;;;1094.15;976.75;;;;;;;;;;5085963;28;20016;-58
2023/08/22 06:47:53;;;;;;;1086.53;967.20;;;;;;;;;;5077547;28;20016;-58
2023/08/22 06:50:19;;;;;;;1070.60;952.50;;;;;;;;;;5080578;28;20405;-62
2023/08/22 06:52:44;;;;;;;1080.37;961.77;;;;;;;;;;5079083;28;20131;-54
2023/08/22 06:55:10;;;;;;;1091.95;972.17;;;;;;;;;;5071916;28;20253;-57
2023/08/22 06:57:35;;;;;;;1088.22;968.13;;;;;;;;;;5074772;28;20025;-58
2023/08/22 07:00:10;;;;;;;1117.47;995.60;;;;;;;;;;5080876;28;20031;-59
2023/08/22 07:02:36;;;;;;;1127.65;999.40;;;;;;;;;;5084388;28;20093;-62
2023/08/22 07:05:01;;;;;;;1121.40;996.53;;;;;;;;;;5078968;28;20032;-59
2023/08/22 07:07:26;;;;;;;1127.47;999.90;;;;;;;;;;5081826;28;20062;-62
2023/08/22 07:09:52;;;;;;;1110.83;989.40;;;;;;;;;;5083310;28;20021;-58
2023/08/22 07:12:17;;;;;;;1103.30;981.23;;;;;;;;;;5083749;28;20469;-62
2023/08/22 07:14:42;;;;;;;1117.37;994.60;;;;;;;;;;5082398;28;20619;-58
2023/08/22 07:17:08;;;;;;;1141.85;999.90;;;;;;;;;;5077887;28;20412;-58
2023/08/22 07:19:33;;;;;;;1146.88;999.90;;;;;;;;;;5078271;28;20111;-61
2023/08/22 07:21:58;;;;;;;1149.83;999.90;;;;;;;;;;5082389;28;20745;-58
2023/08/22 07:24:23;;;;;;;1164.03;999.90;;;;;;;;;;5094838;28;20066;-59
2023/08/22 07:26:49;;;;;;;1175.75;999.90;;;;;;;;;;5075553;28;20032;-61
2023/08/22 07:29:14;;;;;;;1176.23;999.90;;;;;;;;;;5071611;28;20428;-58
2023/08/22 07:31:39;;;;;;;1168.70;999.90;;;;;;;;;;5072640;28;20047;-58
2023/08/22 07:34:05;;;;;;;1171.40;999.90;;;;;;;;;;5080019;28;20024;-61
2023/08/22 07:36:30;;;;;;;1193.43;999.90;;;;;;;;;;5082261;28;20086;-60
2023/08/22 07:38:56;;;;;;;1192.80;999.90;;;;;;;;;;5072990;28;20879;-55
2023/08/22 07:41:21;;;;;;;1183.05;999.90;;;;;;;;;;5084170;28;20102;-59
2023/08/22 07:43:47;;;;;;;1148.25;999.90;;;;;;;;;;5082055;28;20157;-61
2023/08/22 07:46:12;;;;;;;1200.43;999.90;;;;;;;;;;5084702;28;20036;-54
2023/08/22 07:48:37;;;;;;;1210.70;999.90;;;;;;;;;;5079206;28;20116;-55
2023/08/22 07:51:03;;;;;;;1205.87;999.90;;;;;;;;;;5073113;28;20500;-60
2023/08/22 07:53:28;;;;;;;1191.00;999.90;;;;;;;;;;5077944;28;20109;-59
2023/08/22 07:55:53;;;;;;;1170.27;999.90;;;;;;;;;;5095364;28;20039;-58
2023/08/22 07:58:19;;;;;;;1139.00;999.90;;;;;;;;;;5079085;28;20260;-58
2023/08/22 08:00:47;;;;;;;1194.70;999.90;;;;;;;;;;5077680;28;20032;-62
2023/08/22 08:03:13;;;;;;;1205.75;999.90;;;;;;;;;;5081412;28;20072;-57
2023/08/22 08:05:38;;;;;;;1240.27;999.90;;;;;;;;;;5077880;28;20020;-61
2023/08/22 08:08:03;;;;;;;1217.47;999.90;;;;;;;;;;5075028;28;20032;-59
2023/08/22 08:10:29;;;;;;;1211.25;999.90;;;;;;;;;;5081756;28;20261;-60
2023/08/22 08:12:54;;;;;;;1200.80;999.90;;;;;;;;;;5084865;28;20538;-61
2023/08/22 08:15:19;;;;;;;1215.10;999.90;;;;;;;;;;5081501;28;20283;-61
2023/08/22 08:17:44;;;;;;;1220.17;999.90;;;;;;;;;;5075534;28;20969;-58
2023/08/22 08:20:10;;;;;;;1213.90;999.90;;;;;;;;;;5083858;28;20031;-60
2023/08/22 08:22:36;;;;;;;1220.03;999.90;;;;;;;;;;5080425;28;20027;-60
2023/08/22 08:25:02;;;;;;;1223.70;999.90;;;;;;;;;;5081392;28;20020;-55
2023/08/22 08:27:28;;;;;;;1230.93;999.90;;;;;;;;;;5071806;28;20392;-62
2023/08/22 08:29:53;;;;;;;1229.93;999.90;;;;;;;;;;5068966;28;20051;-59
2023/08/22 08:32:19;;;;;;;1215.47;999.90;;;;;;;;;;5094700;28;20680;-62
2023/08/22 08:34:44;;;;;;;1229.50;999.90;;;;;;;;;;5080595;28;21477;-63
2023/08/22 08:37:09;;;;;;;1230.10;999.90;;;;;;;;;;5080958;28;20522;-59
2023/08/22 08:39:35;;;;;;;1227.77;999.90;;;;;;;;;;5077249;28;20023;-59
2023/08/22 08:42:00;;;;;;;1234.05;999.90;;;;;;;;;;5073032;28;20315;-59
2023/08/22 08:44:26;;;;;;;1234.23;999.90;;;;;;;;;;5076204;28;20062;-58
2023/08/22 08:46:51;;;;;;;1234.90;999.90;;;;;;;;;;5063900;28;20620;-61
2023/08/22 08:49:17;;;;;;;1246.05;999.90;;;;;;;;;;5074566;28;20042;-62
2023/08/22 08:51:43;;;;;;;1222.70;999.90;;;;;;;;;;5078345;28;20047;-58
2023/08/22 08:54:09;;;;;;;1230.18;999.90;;;;;;;;;;5081435;28;20036;-59
2023/08/22 08:56:34;;;;;;;7.22;6.13;;;;;;;;;;5062934;28;20558;-58
2023/08/22 08:58:59;;;;;;;8.10;5.67;;;;;;;;;;5066511;28;20122;-58
2023/08/22 09:01:26;;;;;;;6.77;5.83;;;;;;;;;;5077194;28;20035;-58
2023/08/22 09:03:51;;;;;;;8.70;6.45;;;;;;;;;;5082222;28;20076;-62
2023/08/22 09:06:17;;;;;;;6.77;6.17;;;;;;;;;;5082017;28;20118;-59
2023/08/22 09:09:00;;;;;;;7.35;6.63;;;;;;;;;;5080899;28;20480;-57
2023/08/22 09:11:26;;;;;;;8.85;7.10;;;;;;;;;;5081624;28;20201;-60
2023/08/22 09:13:51;;;;;;;6.18;5.57;;;;;;;;;;5084998;28;20495;-55
2023/08/22 09:16:16;;;;;;;6.43;5.40;;;;;;;;;;5078356;28;20028;-60
2023/08/22 09:18:42;;;;;;;6.80;6.10;;;;;;;;;;5080289;28;20267;-59
2023/08/22 09:21:07;;;;;;;9.20;6.70;;;;;;;;;;5069515;28;20020;-60
2023/08/22 09:23:33;;;;;;;8.30;5.75;;;;;;;;;;5083354;28;20859;-57
2023/08/22 09:25:59;;;;;;;8.48;6.22;;;;;;;;;;5079462;28;20016;-60
2023/08/22 09:28:25;;;;;;;6.60;6.00;;;;;;;;;;5077593;28;20031;-60
2023/08/22 09:30:50;;;;;;;7.13;5.67;;;;;;;;;;5071704;28;20139;-62
2023/08/22 09:33:16;;;;;;;6.07;5.47;;;;;;;;;;5073387;28;20488;-59
2023/08/22 09:35:41;;;;;;;6.53;5.85;;;;;;;;;;5075372;28;20020;-60
2023/08/22 09:38:08;;;;;;;6.87;5.60;;;;;;;;;;5075545;28;20024;-59
2023/08/22 09:40:33;;;;;;;6.28;5.43;;;;;;;;;;5077756;28;20020;-60
2023/08/22 09:42:59;;;;;;;6.63;6.00;;;;;;;;;;5073034;28;20086;-58
2023/08/22 09:45:25;;;;;;;8.63;5.70;;;;;;;;;;5073256;28;20423;-59
2023/08/22 09:47:52;;;;;;;7.45;6.38;;;;;;;;;;5079802;28;20047;-61
2023/08/22 09:50:19;;;;;;;1279.00;999.90;;;;;;;;;;5077667;28;20036;-57
2023/08/22 09:52:45;;;;;;;6.75;6.00;;;;;;;;;;5073942;28;20143;-62
2023/08/22 09:55:11;;;;;;;1239.53;999.90;;;;;;;;;;5080329;28;20453;-61
2023/08/22 09:57:37;;;;;;;1211.57;999.90;;;;;;;;;;5091625;28;20034;-60
2023/08/22 10:00:04;;;;;;;1209.28;999.90;;;;;;;;;;5091603;28;20530;-61
2023/08/22 10:02:30;;;;;;;1219.75;999.90;;;;;;;;;;5077852;28;20044;-60
2023/08/22 10:04:55;;;;;;;1218.05;999.90;;;;;;;;;;5083535;28;20373;-59
2023/08/22 10:07:21;;;;;;;1222.63;999.90;;;;;;;;;;5081489;28;20077;-62
2023/08/22 10:09:46;;;;;;;1228.82;999.90;;;;;;;;;;5086637;28;20043;-63
2023/08/22 10:12:13;;;;;;;1207.53;999.90;;;;;;;;;;5089131;28;20366;-58
2023/08/22 10:14:43;;;;;;;1187.97;999.90;;;;;;;;;;5088540;28;20260;-58
2023/08/22 10:17:13;;;;;;;1170.03;999.90;;;;;;;;;;5088356;28;20024;-60
2023/08/22 10:19:38;;;;;;;1143.35;999.90;;;;;;;;;;5087477;28;20020;-63
2023/08/22 10:22:08;;;;;;;1166.50;999.90;;;;;;;;;;5088081;28;20172;-61
2023/08/22 10:24:35;;;;;;;1156.60;999.90;;;;;;;;;;5071268;28;20032;-59
2023/08/22 10:27:03;;;;;;;1180.18;999.90;;;;;;;;;;5068144;28;20024;-62
2023/08/22 10:29:40;;;;;;;1207.68;999.90;;;;;;;;;;5067902;28;20079;-60
2023/08/22 10:32:05;;;;;;;1196.10;999.90;;;;;;;;;;5072361;28;20031;-56
2023/08/22 10:34:33;;;;;;;1196.73;999.90;;;;;;;;;;5088383;28;20090;-61
2023/08/22 10:36:59;;;;;;;1199.55;999.90;;;;;;;;;;5085920;28;20073;-60
2023/08/22 10:39:39;;;;;;;1222.47;999.90;;;;;;;;;;5088360;28;20028;-59
2023/08/22 10:42:21;;;;;;;1197.10;999.90;;;;;;;;;;5068619;28;20028;-62
2023/08/22 10:44:49;;;;;;;1204.57;999.90;;;;;;;;;;5067907;28;20065;-57
2023/08/22 10:47:19;;;;;;;1197.28;999.90;;;;;;;;;;5067171;28;20056;-59
2023/08/22 10:49:47;;;;;;;1196.70;999.90;;;;;;;;;;5077769;28;20031;-59
2023/08/22 10:52:13;;;;;;;1218.28;999.90;;;;;;;;;;5087572;28;20040;-64
2023/08/22 10:54:56;;;;;;;1220.20;999.90;;;;;;;;;;5086338;28;20028;-62
2023/08/22 10:57:22;;;;;;;1188.75;999.90;;;;;;;;;;5086642;28;20059;-61
2023/08/22 11:00:17;;;;;;;1182.87;999.90;;;;;;;;;;5087976;28;20039;-62
2023/08/22 11:02:42;;;;;;;1206.28;999.90;;;;;;;;;;5082946;28;20791;-63
2023/08/22 11:05:12;;;;;;;1171.15;999.90;;;;;;;;;;5075535;28;20012;-61
2023/08/22 11:07:42;;;;;;;1167.32;999.90;;;;;;;;;;5070808;28;20036;-60
2023/08/22 11:10:28;;;;;;;1205.75;999.90;;;;;;;;;;5077101;28;20107;-61
2023/08/22 11:12:53;;;;;;;1171.95;999.90;;;;;;;;;;5075734;28;20093;-61
2023/08/22 11:15:19;;;;;;;1193.38;999.90;;;;;;;;;;5072698;28;20033;-58
2023/08/22 11:17:48;;;;;;;1213.70;999.90;;;;;;;;;;5082995;28;20031;-61
2023/08/22 11:20:14;;;;;;;1228.55;999.90;;;;;;;;;;5083847;28;20360;-62
2023/08/22 11:22:40;;;;;;;1190.82;999.90;;;;;;;;;;5081010;28;20516;-58
2023/08/22 11:25:05;;;;;;;1170.85;999.90;;;;;;;;;;5069035;28;20024;-63
2023/08/22 11:27:30;;;;;;;1204.78;999.90;;;;;;;;;;5065628;28;20071;-61
2023/08/22 11:29:56;;;;;;;1180.20;999.90;;;;;;;;;;5070649;28;20032;-61
2023/08/22 11:32:22;;;;;;;1192.03;999.90;;;;;;;;;;5074702;28;20024;-62
2023/08/22 11:34:49;;;;;;;1182.18;999.90;;;;;;;;;;5076264;28;20017;-61
2023/08/22 11:37:15;;;;;;;1209.78;999.90;;;;;;;;;;5085014;28;20081;-63
2023/08/22 11:39:44;;;;;;;1198.55;999.90;;;;;;;;;;5084679;28;20035;-61
2023/08/22 11:42:09;;;;;;;1191.63;999.90;;;;;;;;;;5076069;28;20017;-63
2023/08/22 11:44:50;;;;;;;1200.20;999.90;;;;;;;;;;5093356;28;20032;-62
2023/08/22 11:47:16;;;;;;;1192.18;999.90;;;;;;;;;;5069383;28;20130;-57
2023/08/22 11:49:41;;;;;;;1236.80;999.90;;;;;;;;;;5078584;28;22240;-62
2023/08/22 11:52:07;;;;;;;1235.37;999.90;;;;;;;;;;5074098;28;20036;-64
2023/08/22 11:54:32;;;;;;;1235.47;999.90;;;;;;;;;;5060471;28;20154;-64
2023/08/22 11:56:59;;;;;;;1247.87;999.90;;;;;;;;;;5072540;28;20210;-63
2023/08/22 11:59:25;;;;;;;1226.60;999.90;;;;;;;;;;5075680;28;20047;-61
2023/08/22 12:01:50;;;;;;;1240.70;999.90;;;;;;;;;;5079647;28;20071;-65
2023/08/22 12:04:16;;;;;;;1226.33;999.90;;;;;;;;;;5075650;28;20107;-62
2023/08/22 12:06:41;;;;;;;1234.78;999.90;;;;;;;;;;5042215;28;20137;-63
2023/08/22 12:09:11;;;;;;;1223.37;999.90;;;;;;;;;;5065982;28;20542;-66
2023/08/22 12:11:36;;;;;;;1236.75;999.90;;;;;;;;;;5069625;28;20028;-62
2023/08/22 12:14:01;;;;;;;1228.50;999.90;;;;;;;;;;5026704;28;20071;-62
2023/08/22 12:16:27;;;;;;;1235.13;999.90;;;;;;;;;;5043670;28;20146;-63
2023/08/22 12:18:52;;;;;;;1234.80;999.90;;;;;;;;;;5070389;28;20393;-60
2023/08/22 12:21:17;;;;;;;1235.00;999.90;;;;;;;;;;5077653;28;20508;-60
2023/08/22 12:23:43;;;;;;;1260.70;999.90;;;;;;;;;;5078639;28;20722;-60
2023/08/22 12:26:08;;;;;;;1221.97;999.90;;;;;;;;;;5080282;28;20115;-62
2023/08/22 12:28:33;;;;;;;1224.60;999.90;;;;;;;;;;5076294;28;20188;-60
2023/08/22 12:30:59;;;;;;;1218.30;999.90;;;;;;;;;;5073804;28;20049;-61
2023/08/22 12:33:24;;;;;;;1221.23;999.90;;;;;;;;;;5082689;28;20024;-61
2023/08/22 12:35:49;;;;;;;1209.60;999.90;;;;;;;;;;5079983;28;20067;-57
2023/08/22 12:38:14;;;;;;;1218.77;999.90;;;;;;;;;;5074193;28;20035;-61
2023/08/22 12:40:40;;;;;;;1242.40;999.90;;;;;;;;;;5067151;28;20115;-59
2023/08/22 12:43:05;;;;;;;1211.05;999.90;;;;;;;;;;5082248;28;20016;-60
2023/08/22 12:45:31;;;;;;;1197.33;999.90;;;;;;;;;;5081666;28;20028;-61
2023/08/22 12:47:56;;;;;;;1192.32;999.90;;;;;;;;;;5080025;28;20541;-61
2023/08/22 12:50:21;;;;;;;1184.97;999.90;;;;;;;;;;5072955;28;20020;-62
2023/08/22 12:52:46;;;;;;;1180.50;999.90;;;;;;;;;;5096119;28;20523;-63
2023/08/22 12:55:12;;;;;;;1210.73;999.90;;;;;;;;;;5071615;28;20146;-61
2023/08/22 12:57:41;;;;;;;1215.28;999.90;;;;;;;;;;5077061;28;20503;-61
2023/08/22 13:00:08;;;;;;;1209.78;999.90;;;;;;;;;;5077113;28;20031;-64
2023/08/22 13:02:35;;;;;;;1199.93;999.90;;;;;;;;;;5080998;28;20044;-60
2023/08/22 13:05:00;;;;;;;1196.00;999.90;;;;;;;;;;5073515;28;20496;-57
2023/08/22 13:07:26;;;;;;;1205.70;999.90;;;;;;;;;;5075578;28;20047;-63
2023/08/22 13:09:51;;;;;;;1201.87;999.90;;;;;;;;;;5081435;28;20035;-62
2023/08/22 13:12:16;;;;;;;1207.03;999.90;;;;;;;;;;5082540;28;20020;-62
2023/08/22 13:14:41;;;;;;;1203.13;999.90;;;;;;;;;;5090270;28;20293;-63
2023/08/22 13:17:07;;;;;;;1173.57;999.90;;;;;;;;;;5072664;28;20268;-62
2023/08/22 13:19:32;;;;;;;1174.38;999.90;;;;;;;;;;5073955;28;20465;-65
2023/08/22 13:21:57;;;;;;;1178.23;999.90;;;;;;;;;;5071749;28;20725;-59
2023/08/22 13:24:23;;;;;;;1177.17;999.90;;;;;;;;;;5072876;28;20024;-63
2023/08/22 13:26:48;;;;;;;1174.87;999.90;;;;;;;;;;5074377;28;20280;-66
2023/08/22 13:29:13;;;;;;;1193.63;999.90;;;;;;;;;;5072658;28;20431;-60
2023/08/22 13:31:39;;;;;;;1175.97;999.90;;;;;;;;;;5071515;28;20028;-63
2023/08/22 13:34:04;;;;;;;1182.70;999.90;;;;;;;;;;5074099;28;20556;-62
2023/08/22 13:36:30;;;;;;;1174.18;999.90;;;;;;;;;;5072724;28;20032;-61
2023/08/22 13:38:57;;;;;;;1165.53;999.90;;;;;;;;;;5083085;28;20032;-63
2023/08/22 13:41:23;;;;;;;1172.47;999.90;;;;;;;;;;5084933;28;20469;-60
2023/08/22 13:43:48;;;;;;;1156.90;999.90;;;;;;;;;;5084912;28;20023;-63